createdAt,value
2022-07-29T00:01:44.209Z,101424.16
2022-07-29T00:04:11.746Z,101423.75
2022-07-29T00:06:39.173Z,101413.72
2022-07-29T00:09:06.593Z,101417.84
2022-07-29T00:11:33.898Z,101427.78
2022-07-29T00:14:01.230Z,101412.31
2022-07-29T00:16:28.255Z,101414.97
2022-07-29T00:18:55.276Z,101412.09
2022-07-29T00:21:28.309Z,101409.63
2022-07-29T00:24:02.356Z,101413.03
2022-07-29T00:26:32.635Z,101406.25
2022-07-29T00:29:32.424Z,101412.53
2022-07-29T00:31:49.241Z,101401.91
2022-07-29T00:34:34.593Z,101399.34
2022-07-29T00:37:17.025Z,101394.41
2022-07-29T00:39:44.122Z,101387.88
2022-07-29T00:42:11.172Z,101396.06
2022-07-29T00:44:40.167Z,101398.72
2022-07-29T00:47:09.123Z,101397.38
2022-07-29T00:49:36.623Z,101403.03
2022-07-29T00:52:05.990Z,101390.28
2022-07-29T00:54:34.836Z,101385.38
2022-07-29T00:57:02.537Z,101388.53
2022-07-29T00:59:34.605Z,101379.81
2022-07-29T01:02:05.889Z,101391.81
2022-07-29T01:04:33.572Z,101386.00
2022-07-29T01:07:04.225Z,101396.19
2022-07-29T01:09:42.175Z,101385.50
2022-07-29T01:12:20.390Z,101376.34
2022-07-29T01:14:49.963Z,101380.56
2022-07-29T01:17:52.712Z,101372.03
2022-07-29T01:21:03.570Z,101374.59
2022-07-29T01:24:18.782Z,101371.81
2022-07-29T01:27:10.168Z,101381.75
2022-07-29T01:29:55.412Z,101372.06
2022-07-29T01:32:31.178Z,101380.94
2022-07-29T01:35:13.512Z,101378.78
2022-07-29T01:38:10.796Z,101366.00
2022-07-29T01:40:55.461Z,101372.97
2022-07-29T01:43:28.826Z,101374.19
2022-07-29T01:46:05.307Z,101377.66
2022-07-29T01:48:40.200Z,101373.13
2022-07-29T01:51:20.911Z,101374.69
2022-07-29T01:54:00.605Z,101365.31
2022-07-29T01:56:30.733Z,101371.59
2022-07-29T01:58:59.662Z,101375.03
2022-07-29T02:01:28.439Z,101363.97
2022-07-29T02:03:56.954Z,101375.84
2022-07-29T02:06:26.637Z,101362.31
2022-07-29T02:08:54.851Z,101354.31
2022-07-29T02:11:22.028Z,101352.91
2022-07-29T02:13:50.861Z,101360.06
2022-07-29T02:16:20.302Z,101353.44
2022-07-29T02:18:52.645Z,101368.06
2022-07-29T02:21:29.127Z,101364.47
2022-07-29T02:24:01.004Z,101377.22
2022-07-29T02:26:30.288Z,101367.91
2022-07-29T02:29:00.382Z,101368.91
2022-07-29T02:31:34.686Z,101371.66
2022-07-29T02:34:04.823Z,101373.50
2022-07-29T02:36:36.386Z,101373.16
2022-07-29T02:39:05.090Z,101368.72
2022-07-29T02:41:41.618Z,101369.19
2022-07-29T02:44:17.426Z,101366.09
2022-07-29T02:47:30.587Z,101371.13
2022-07-29T02:50:29.197Z,101357.41
2022-07-29T02:53:32.578Z,101368.75
2022-07-29T02:56:15.219Z,101373.63
2022-07-29T02:58:48.142Z,101385.66
2022-07-29T03:01:24.084Z,101381.72
2022-07-29T03:03:55.101Z,101387.44
2022-07-29T03:06:37.559Z,101374.53
2022-07-29T03:09:12.780Z,101374.09
2022-07-29T03:11:46.248Z,101379.78
2022-07-29T03:14:20.566Z,101374.78
2022-07-29T03:16:49.000Z,101381.34
2022-07-29T03:19:16.686Z,101378.38
2022-07-29T03:21:43.738Z,101389.69
2022-07-29T03:24:11.150Z,101381.09
2022-07-29T03:26:38.583Z,101390.28
2022-07-29T03:29:05.768Z,101388.97
2022-07-29T03:31:33.503Z,101392.72
2022-07-29T03:34:00.825Z,101389.03
2022-07-29T03:36:27.834Z,101381.09
2022-07-29T03:38:55.700Z,101398.53
2022-07-29T03:41:25.870Z,101394.63
2022-07-29T03:43:54.009Z,101385.28
2022-07-29T03:46:24.455Z,101387.88
2022-07-29T03:48:57.503Z,101388.41
2022-07-29T03:51:33.502Z,101394.06
2022-07-29T03:54:10.077Z,101378.06
2022-07-29T03:56:42.291Z,101382.47
2022-07-29T03:59:10.607Z,101383.09
2022-07-29T04:01:39.549Z,101389.72
2022-07-29T04:04:06.714Z,101386.75
2022-07-29T04:06:44.607Z,101382.94
2022-07-29T04:09:12.841Z,101385.78
2022-07-29T04:12:03.912Z,101399.16
2022-07-29T04:14:28.101Z,101404.06
2022-07-29T04:16:55.080Z,101391.03
2022-07-29T04:19:22.076Z,101399.84
2022-07-29T04:21:49.011Z,101405.47
2022-07-29T04:24:16.306Z,101406.31
2022-07-29T04:26:43.517Z,101400.75
2022-07-29T04:29:10.633Z,101405.31
2022-07-29T04:31:37.759Z,101408.75
2022-07-29T04:34:04.845Z,101409.41
2022-07-29T04:36:31.766Z,101400.41
2022-07-29T04:38:59.146Z,101408.47
2022-07-29T04:41:33.129Z,101406.75
2022-07-29T04:44:05.910Z,101412.47
2022-07-29T04:46:35.342Z,101410.97
2022-07-29T04:49:04.033Z,101414.81
2022-07-29T04:51:31.390Z,101423.56
2022-07-29T04:53:58.417Z,101422.63
2022-07-29T04:56:25.449Z,101425.22
2022-07-29T04:58:52.456Z,101415.81
2022-07-29T05:01:19.717Z,101405.91
2022-07-29T05:03:46.938Z,101406.50
2022-07-29T05:06:13.949Z,101416.00
2022-07-29T05:08:41.917Z,101419.72
2022-07-29T05:11:12.555Z,101423.03
2022-07-29T05:13:45.045Z,101424.47
2022-07-29T05:16:14.097Z,101431.81
2022-07-29T05:18:41.481Z,101432.59
2022-07-29T05:21:08.599Z,101427.78
2022-07-29T05:23:35.556Z,101428.59
2022-07-29T05:26:02.670Z,101424.97
2022-07-29T05:28:29.757Z,101426.00
2022-07-29T05:30:57.309Z,101429.22
2022-07-29T05:33:35.912Z,101431.63
2022-07-29T05:36:08.000Z,101428.94
2022-07-29T05:38:37.007Z,101427.28
2022-07-29T05:41:06.107Z,101442.38
2022-07-29T05:43:33.766Z,101439.72
2022-07-29T05:46:00.994Z,101438.41
2022-07-29T05:48:28.728Z,101429.94
2022-07-29T05:50:55.973Z,101431.91
2022-07-29T05:53:23.538Z,101434.16
2022-07-29T05:55:51.546Z,101438.13
2022-07-29T05:58:18.544Z,101432.47
2022-07-29T06:00:45.747Z,101437.91
2022-07-29T06:03:12.846Z,101444.47
2022-07-29T06:05:39.902Z,101438.75
2022-07-29T06:08:08.571Z,101446.75
2022-07-29T06:10:39.345Z,101442.66
2022-07-29T06:13:06.320Z,101449.81
2022-07-29T06:15:34.365Z,101443.25
2022-07-29T06:18:02.457Z,101446.72
2022-07-29T06:20:32.016Z,101464.72
2022-07-29T06:23:00.546Z,101458.25
2022-07-29T06:25:31.761Z,101457.72
2022-07-29T06:28:00.429Z,101458.00
2022-07-29T06:30:29.818Z,101461.75
2022-07-29T06:32:56.970Z,101460.28
2022-07-29T06:35:41.363Z,101468.41
2022-07-29T06:38:30.191Z,101464.38
2022-07-29T06:41:07.013Z,101464.94
2022-07-29T06:43:51.835Z,101459.09
2022-07-29T06:46:23.130Z,101469.06
2022-07-29T06:48:50.928Z,101471.31
2022-07-29T06:51:22.683Z,101469.44
2022-07-29T06:53:58.292Z,101463.00
2022-07-29T06:56:29.440Z,101468.13
2022-07-29T06:58:56.610Z,101476.16
2022-07-29T07:01:23.606Z,101475.16
2022-07-29T07:03:51.118Z,101477.06
2022-07-29T07:06:18.522Z,101469.34
2022-07-29T07:08:45.561Z,101471.28
2022-07-29T07:11:12.852Z,101469.34
2022-07-29T07:13:39.880Z,101462.31
2022-07-29T07:16:06.885Z,101467.19
2022-07-29T07:18:34.122Z,101470.13
2022-07-29T07:21:01.158Z,101472.44
2022-07-29T07:23:28.102Z,101479.97
2022-07-29T07:25:55.047Z,101470.44
2022-07-29T07:28:27.209Z,101467.94
2022-07-29T07:30:54.112Z,101468.34
2022-07-29T07:33:21.422Z,101465.59
2022-07-29T07:35:50.083Z,101464.09
2022-07-29T07:38:17.031Z,101469.19
2022-07-29T07:40:44.429Z,101457.25
2022-07-29T07:43:11.469Z,101455.78
2022-07-29T07:45:41.150Z,101462.91
2022-07-29T07:48:11.095Z,101464.28
2022-07-29T07:50:38.405Z,101466.41
2022-07-29T07:53:05.735Z,101463.78
2022-07-29T07:55:59.996Z,101467.97
2022-07-29T07:58:19.881Z,101472.91
2022-07-29T08:00:46.831Z,101474.22
2022-07-29T08:03:17.010Z,101475.91
2022-07-29T08:05:44.985Z,101485.41
2022-07-29T08:08:11.908Z,101485.94
2022-07-29T08:10:54.417Z,101483.25
2022-07-29T08:13:23.997Z,101483.00
2022-07-29T08:16:01.709Z,101481.06
2022-07-29T08:18:31.425Z,101475.69
2022-07-29T08:20:59.492Z,101473.75
2022-07-29T08:23:31.601Z,101476.47
2022-07-29T08:26:14.415Z,101476.53
2022-07-29T08:28:47.300Z,101478.28
2022-07-29T08:31:15.099Z,101477.66
2022-07-29T08:33:42.757Z,101475.69
2022-07-29T08:36:10.004Z,101475.81
2022-07-29T08:38:37.018Z,101497.25
2022-07-29T08:41:07.136Z,101486.72
2022-07-29T08:43:36.250Z,101488.88
2022-07-29T08:46:03.477Z,101496.66
2022-07-29T08:48:31.105Z,101490.78
2022-07-29T08:50:58.868Z,101490.44
2022-07-29T08:53:28.205Z,101492.53
2022-07-29T08:55:57.055Z,101492.84
2022-07-29T08:58:26.010Z,101493.69
2022-07-29T09:00:56.248Z,101495.66
2022-07-29T09:03:31.694Z,101486.16
2022-07-29T09:06:01.007Z,101496.19
2022-07-29T09:08:28.462Z,101479.88
2022-07-29T09:10:59.392Z,101501.66
2022-07-29T09:13:27.405Z,101496.13
2022-07-29T09:15:54.900Z,101489.97
2022-07-29T09:18:42.163Z,101490.78
2022-07-29T09:21:31.507Z,101484.00
2022-07-29T09:24:13.393Z,101481.56
2022-07-29T09:26:43.875Z,101482.03
2022-07-29T09:29:16.809Z,101484.81
2022-07-29T09:31:50.091Z,101477.88
2022-07-29T09:34:24.827Z,101476.44
2022-07-29T09:36:54.552Z,101476.66
2022-07-29T09:39:48.406Z,101485.84
2022-07-29T09:42:28.858Z,101491.53
2022-07-29T09:44:55.869Z,101484.59
2022-07-29T09:47:25.007Z,101483.69
2022-07-29T09:50:00.484Z,101483.56
2022-07-29T09:52:29.788Z,101489.19
2022-07-29T09:55:08.375Z,101490.50
2022-07-29T09:57:35.766Z,101479.50
2022-07-29T10:00:07.763Z,101493.28
2022-07-29T10:02:37.898Z,101483.13
2022-07-29T10:05:36.199Z,101487.56
2022-07-29T10:08:04.317Z,101481.25
2022-07-29T10:10:38.553Z,101482.97
2022-07-29T10:13:15.052Z,101474.66
2022-07-29T10:15:46.174Z,101478.25
2022-07-29T10:18:14.851Z,101469.97
2022-07-29T10:20:42.046Z,101470.03
2022-07-29T10:23:10.490Z,101476.94
2022-07-29T10:25:38.605Z,101474.81
2022-07-29T10:28:07.450Z,101475.66
2022-07-29T10:30:35.135Z,101485.34
2022-07-29T10:33:28.919Z,101476.81
2022-07-29T10:36:34.650Z,101478.63
2022-07-29T10:39:41.635Z,101481.88
2022-07-29T10:42:43.589Z,101476.00
2022-07-29T10:45:11.931Z,101488.94
2022-07-29T10:47:39.379Z,101488.00
2022-07-29T10:50:08.987Z,101478.94
2022-07-29T10:52:53.021Z,101481.84
2022-07-29T10:55:43.721Z,101476.09
2022-07-29T10:58:24.566Z,101479.84
2022-07-29T11:00:54.259Z,101481.47
2022-07-29T11:03:52.364Z,101485.34
2022-07-29T11:06:26.941Z,101483.00
2022-07-29T11:09:25.878Z,101491.78
2022-07-29T11:12:04.801Z,101487.94
2022-07-29T11:15:00.439Z,101491.69
2022-07-29T11:17:27.701Z,101492.31
2022-07-29T11:20:42.962Z,101483.78
2022-07-29T11:23:43.414Z,101484.78
2022-07-29T11:26:18.528Z,101489.66
2022-07-29T11:28:55.552Z,101483.22
2022-07-29T11:31:47.166Z,101488.78
2022-07-29T11:34:37.003Z,101485.63
2022-07-29T11:37:10.415Z,101483.47
2022-07-29T11:39:45.594Z,101482.63
2022-07-29T11:42:28.323Z,101479.72
2022-07-29T11:45:43.861Z,101484.41
2022-07-29T11:48:28.913Z,101481.41
2022-07-29T11:51:01.509Z,101482.50
2022-07-29T11:53:33.046Z,101489.00
2022-07-29T11:56:02.523Z,101492.09
2022-07-29T11:58:30.455Z,101487.22
2022-07-29T12:01:04.758Z,101484.72
2022-07-29T12:03:38.169Z,101494.97
2022-07-29T12:06:18.087Z,101490.44
2022-07-29T12:08:47.414Z,101490.34
2022-07-29T12:11:32.490Z,101481.66
2022-07-29T12:14:00.605Z,101493.75
2022-07-29T12:16:38.553Z,101485.31
2022-07-29T12:19:08.593Z,101501.84
2022-07-29T12:22:01.019Z,101503.84
2022-07-29T12:24:45.268Z,101495.56
2022-07-29T12:27:19.195Z,101487.47
2022-07-29T12:30:02.168Z,101480.63
2022-07-29T12:32:48.822Z,101485.25
2022-07-29T12:35:23.174Z,101478.84
2022-07-29T12:37:52.635Z,101481.16
2022-07-29T12:40:24.029Z,101482.41
2022-07-29T12:43:16.441Z,101479.66
2022-07-29T12:45:53.081Z,101475.03
2022-07-29T12:48:35.394Z,101477.00
2022-07-29T12:51:07.091Z,101479.34
2022-07-29T12:53:36.116Z,101474.03
2022-07-29T12:56:20.701Z,101482.59
2022-07-29T12:58:53.469Z,101485.81
2022-07-29T13:01:23.760Z,101472.28
2022-07-29T13:03:57.354Z,101484.63
2022-07-29T13:06:45.788Z,101481.56
2022-07-29T13:09:19.664Z,101485.19
2022-07-29T13:11:53.442Z,101488.03
2022-07-29T13:14:39.014Z,101482.06
2022-07-29T13:17:23.985Z,101487.47
2022-07-29T13:19:54.628Z,101484.63
2022-07-29T13:22:25.617Z,101488.59
2022-07-29T13:24:59.750Z,101489.47
2022-07-29T13:27:30.014Z,101490.63
2022-07-29T13:30:00.505Z,101491.06
2022-07-29T13:32:30.782Z,101493.28
2022-07-29T13:35:01.713Z,101476.06
2022-07-29T13:37:35.412Z,101480.44
2022-07-29T13:40:04.257Z,101483.38
2022-07-29T13:42:33.372Z,101480.84
2022-07-29T13:45:02.083Z,101472.09
2022-07-29T13:47:33.333Z,101473.94
2022-07-29T13:50:08.757Z,101470.00
2022-07-29T13:52:35.788Z,101473.25
2022-07-29T13:55:04.760Z,101471.78
2022-07-29T13:57:31.860Z,101467.13
2022-07-29T13:59:59.213Z,101468.03
2022-07-29T14:02:26.406Z,101472.22
2022-07-29T14:04:55.577Z,101464.31
2022-07-29T14:07:24.176Z,101468.63
2022-07-29T14:09:51.797Z,101471.59
2022-07-29T14:12:19.096Z,101470.53
2022-07-29T14:14:47.371Z,101463.88
2022-07-29T14:17:15.185Z,101471.94
2022-07-29T14:19:43.899Z,101464.66
2022-07-29T14:22:12.280Z,101466.88
2022-07-29T14:24:39.715Z,101460.75
2022-07-29T14:27:08.973Z,101465.28
2022-07-29T14:29:38.211Z,101469.75
2022-07-29T14:32:09.062Z,101471.75
2022-07-29T14:34:37.897Z,101468.09
2022-07-29T14:37:06.851Z,101474.47
2022-07-29T14:39:42.347Z,101476.25
2022-07-29T14:42:17.535Z,101472.81
2022-07-29T14:44:44.661Z,101469.63
2022-07-29T14:47:12.804Z,101474.25
2022-07-29T14:49:39.752Z,101485.91
2022-07-29T14:52:06.971Z,101473.94
2022-07-29T14:54:34.490Z,101474.47
2022-07-29T14:57:02.043Z,101474.88
2022-07-29T14:59:29.006Z,101478.25
2022-07-29T15:01:56.612Z,101471.09
2022-07-29T15:04:24.065Z,101469.88
2022-07-29T15:06:51.155Z,101470.41
2022-07-29T15:09:18.071Z,101459.44
2022-07-29T15:11:45.510Z,101462.09
2022-07-29T15:14:14.838Z,101469.03
2022-07-29T15:16:43.658Z,101465.00
2022-07-29T15:19:11.168Z,101462.56
2022-07-29T15:21:41.334Z,101464.84
2022-07-29T15:24:15.940Z,101458.91
2022-07-29T15:26:44.491Z,101464.19
2022-07-29T15:29:11.579Z,101462.84
2022-07-29T15:31:38.681Z,101458.03
2022-07-29T15:34:06.541Z,101470.47
2022-07-29T15:39:21.885Z,101460.44
2022-07-29T15:41:50.471Z,101460.19
2022-07-29T15:44:18.148Z,101460.31
2022-07-29T15:47:03.540Z,101462.25
2022-07-29T15:49:47.361Z,101461.16
2022-07-29T15:52:24.985Z,101462.69
2022-07-29T15:54:55.549Z,101457.66
2022-07-29T15:57:23.579Z,101454.06
2022-07-29T15:59:50.830Z,101465.75
2022-07-29T16:02:18.042Z,101461.41
2022-07-29T16:04:45.108Z,101464.63
2022-07-29T16:07:12.401Z,101462.59
2022-07-29T16:09:49.302Z,101462.78
2022-07-29T16:12:30.657Z,101470.84
2022-07-29T16:14:57.640Z,101470.16
2022-07-29T16:17:24.561Z,101469.41
2022-07-29T16:19:51.548Z,101478.41
2022-07-29T16:22:18.542Z,101490.34
2022-07-29T16:24:45.501Z,101481.06
2022-07-29T16:27:12.611Z,101485.25
2022-07-29T16:29:39.648Z,101494.03
2022-07-29T16:32:06.952Z,101489.28
2022-07-29T16:34:34.291Z,101493.00
2022-07-29T16:37:01.576Z,101497.72
2022-07-29T16:39:28.688Z,101493.63
2022-07-29T16:41:59.845Z,101497.63
2022-07-29T16:44:28.679Z,101490.25
2022-07-29T16:46:58.950Z,101500.84
2022-07-29T16:49:27.431Z,101497.03
2022-07-29T16:51:54.873Z,101497.97
2022-07-29T16:54:21.815Z,101497.25
2022-07-29T16:56:48.828Z,101505.44
2022-07-29T16:59:15.752Z,101514.19
2022-07-29T17:01:42.774Z,101510.63
2022-07-29T17:04:11.016Z,101509.66
2022-07-29T17:06:40.841Z,101513.44
2022-07-29T17:09:09.976Z,101516.06
2022-07-29T17:11:53.087Z,101515.03
2022-07-29T17:14:27.122Z,101517.06
2022-07-29T17:17:02.648Z,101508.84
2022-07-29T17:19:35.532Z,101512.59
2022-07-29T17:22:12.941Z,101507.59
2022-07-29T17:24:41.632Z,101511.03
2022-07-29T17:27:09.862Z,101524.91
2022-07-29T17:29:37.098Z,101525.09
2022-07-29T17:32:04.665Z,101525.16
2022-07-29T17:34:39.126Z,101525.28
2022-07-29T17:37:09.515Z,101526.97
2022-07-29T17:39:41.275Z,101524.09
2022-07-29T17:42:13.748Z,101527.28
2022-07-29T17:44:41.220Z,101529.66
2022-07-29T17:47:15.591Z,101523.53
2022-07-29T17:49:44.095Z,101517.03
2022-07-29T17:52:11.415Z,101517.09
2022-07-29T17:54:38.336Z,101518.13
2022-07-29T17:57:05.307Z,101523.00
2022-07-29T17:59:32.330Z,101511.31
2022-07-29T18:01:59.341Z,101511.03
2022-07-29T18:04:26.361Z,101517.06
2022-07-29T18:06:53.821Z,101513.59
2022-07-29T18:09:20.911Z,101512.16
2022-07-29T18:11:48.873Z,101520.84
2022-07-29T18:14:16.031Z,101529.66
2022-07-29T18:16:43.050Z,101525.28
2022-07-29T18:19:12.473Z,101533.31
2022-07-29T18:21:51.110Z,101541.91
2022-07-29T18:24:24.563Z,101533.91
2022-07-29T18:26:51.786Z,101534.44
2022-07-29T18:29:19.023Z,101539.84
2022-07-29T18:31:46.244Z,101540.69
2022-07-29T18:34:13.330Z,101540.78
2022-07-29T18:36:40.250Z,101541.91
2022-07-29T18:39:07.231Z,101543.41
2022-07-29T18:41:38.163Z,101548.59
2022-07-29T18:44:17.691Z,101554.19
2022-07-29T18:46:55.766Z,101566.22
2022-07-29T18:49:27.530Z,101567.59
2022-07-29T18:51:54.603Z,101575.19
2022-07-29T18:54:21.690Z,101577.34
2022-07-29T18:56:49.010Z,101587.06
2022-07-29T18:59:19.539Z,101587.03
2022-07-29T19:01:47.513Z,101595.00
2022-07-29T19:04:16.022Z,101596.84
2022-07-29T19:06:43.337Z,101604.28
2022-07-29T19:09:10.410Z,101600.88
2022-07-29T19:11:38.819Z,101613.72
2022-07-29T19:14:06.703Z,101609.16
2022-07-29T19:16:33.792Z,101616.31
2022-07-29T19:19:01.088Z,101623.94
2022-07-29T19:21:30.533Z,101622.38
2022-07-29T19:23:59.924Z,101629.53
2022-07-29T19:26:31.356Z,101628.47
2022-07-29T19:28:58.290Z,101631.81
2022-07-29T19:31:26.588Z,101633.78
2022-07-29T19:34:03.413Z,101640.75
2022-07-29T19:36:31.386Z,101640.94
2022-07-29T19:39:00.141Z,101643.56
2022-07-29T19:41:29.983Z,101641.41
2022-07-29T19:43:57.134Z,101643.63
2022-07-29T19:46:25.163Z,101637.75
2022-07-29T19:48:53.051Z,101644.69
2022-07-29T19:51:20.244Z,101644.03
2022-07-29T19:53:47.216Z,101651.31
2022-07-29T19:56:14.148Z,101651.78
2022-07-29T19:58:42.271Z,101652.28
2022-07-29T20:01:11.368Z,101654.81
2022-07-29T20:03:40.196Z,101656.25
2022-07-29T20:06:07.854Z,101659.53
2022-07-29T20:08:35.067Z,101664.75
2022-07-29T20:11:02.753Z,101660.78
2022-07-29T20:13:33.008Z,101669.16
2022-07-29T20:16:01.791Z,101673.16
2022-07-29T20:18:28.917Z,101662.13
2022-07-29T20:20:57.511Z,101670.88
2022-07-29T20:23:24.585Z,101670.97
2022-07-29T20:25:51.727Z,101663.47
2022-07-29T20:28:18.720Z,101667.75
2022-07-29T20:30:45.709Z,101686.94
2022-07-29T20:33:14.697Z,101678.69
2022-07-29T20:35:41.772Z,101680.94
2022-07-29T20:38:08.685Z,101681.00
2022-07-29T20:40:35.867Z,101680.31
2022-07-29T20:43:02.961Z,101679.47
2022-07-29T20:45:30.479Z,101676.50
2022-07-29T20:47:58.455Z,101668.06
2022-07-29T20:50:25.493Z,101660.81
2022-07-29T20:52:53.060Z,101676.06
2022-07-29T20:55:20.272Z,101665.06
2022-07-29T20:57:47.314Z,101662.75
2022-07-29T21:00:14.748Z,101663.28
2022-07-29T21:02:42.015Z,101659.44
2022-07-29T21:05:09.649Z,101654.69
2022-07-29T21:07:36.706Z,101660.88
2022-07-29T21:10:04.468Z,101660.88
2022-07-29T21:12:31.431Z,101668.84
2022-07-29T21:14:58.400Z,101668.25
2022-07-29T21:17:25.531Z,101669.50
2022-07-29T21:19:53.326Z,101666.84
2022-07-29T21:22:22.291Z,101670.00
2022-07-29T21:24:49.570Z,101664.97
2022-07-29T21:27:38.442Z,101661.16
2022-07-29T21:30:08.165Z,101681.13
2022-07-29T21:32:35.459Z,101682.41
2022-07-29T21:35:02.678Z,101690.09
2022-07-29T21:37:29.723Z,101694.81
2022-07-29T21:39:57.099Z,101700.91
2022-07-29T21:42:24.449Z,101693.81
2022-07-29T21:44:51.711Z,101693.25
2022-07-29T21:47:18.696Z,101691.06
2022-07-29T21:49:46.500Z,101699.81
2022-07-29T21:52:13.893Z,101701.69
2022-07-29T21:54:43.142Z,101695.88
2022-07-29T21:57:10.421Z,101694.81
2022-07-29T21:59:37.479Z,101700.16
2022-07-29T22:02:04.501Z,101699.25
2022-07-29T22:04:32.213Z,101702.22
2022-07-29T22:06:59.825Z,101701.97
2022-07-29T22:09:27.297Z,101704.78
2022-07-29T22:11:54.990Z,101692.19
2022-07-29T22:14:22.340Z,101702.41
2022-07-29T22:16:49.425Z,101694.28
2022-07-29T22:19:16.516Z,101695.81
2022-07-29T22:21:43.633Z,101690.00
2022-07-29T22:24:11.270Z,101693.56
2022-07-29T22:26:38.663Z,101694.28
2022-07-29T22:29:06.612Z,101697.91
2022-07-29T22:31:33.906Z,101689.63
2022-07-29T22:34:00.912Z,101701.66
2022-07-29T22:36:27.874Z,101701.97
2022-07-29T22:38:54.791Z,101697.84
2022-07-29T22:41:21.749Z,101702.56
2022-07-29T22:43:48.720Z,101710.09
2022-07-29T22:46:15.975Z,101714.03
2022-07-29T22:48:43.050Z,101704.63
2022-07-29T22:51:10.173Z,101700.28
2022-07-29T22:53:37.319Z,101711.19
2022-07-29T22:56:04.600Z,101704.81
2022-07-29T22:58:31.603Z,101707.44
2022-07-29T23:00:58.841Z,101713.84
2022-07-29T23:03:26.108Z,101710.72
2022-07-29T23:05:53.106Z,101712.59
2022-07-29T23:08:20.272Z,101710.53
2022-07-29T23:10:47.638Z,101711.16
2022-07-29T23:13:14.834Z,101718.56
2022-07-29T23:15:41.967Z,101719.59
2022-07-29T23:18:10.262Z,101721.84
2022-07-29T23:20:37.203Z,101719.63
2022-07-29T23:23:04.342Z,101712.84
2022-07-29T23:25:31.644Z,101713.00
2022-07-29T23:27:58.601Z,101721.66
2022-07-29T23:30:25.711Z,101720.19
2022-07-29T23:32:53.351Z,101722.75
2022-07-29T23:35:20.730Z,101721.28
2022-07-29T23:37:47.945Z,101722.53
2022-07-29T23:40:15.780Z,101711.03
2022-07-29T23:42:43.382Z,101710.69
2022-07-29T23:45:12.745Z,101707.56
2022-07-29T23:47:40.377Z,101701.72
2022-07-29T23:50:09.333Z,101702.47
2022-07-29T23:52:36.345Z,101705.84
2022-07-29T23:55:37.734Z,101705.19
2022-07-29T23:57:51.903Z,101709.47
